Time;durP1;ratioP1;P1;durP2;ratioP2;P2;SDS_P1;SDS_P2;PMS_P1;PMS_P2;Temp;Humidity;BMP_temperature;BMP_pressure;BME280_temperature;BME280_humidity;BME280_pressure;Samples;Min_cycle;Max_cycle;Signal;HPM_P1;HPM_P2
2023/09/27 00:00:09;;;;;;;10.35;5.90;;;;;;;15.69;73.40;102094.44;7394911;19;20022;-65
2023/09/27 00:02:42;;;;;;;12.27;6.13;;;;;;;15.72;73.41;102089.72;7393690;19;20018;-65
2023/09/27 00:05:11;;;;;;;10.03;5.80;;;;;;;15.82;73.03;102065.84;7395317;19;20255;-65
2023/09/27 00:07:41;;;;;;;9.68;5.78;;;;;;;15.92;72.54;102074.03;7395194;19;20010;-64
2023/09/27 00:10:10;;;;;;;10.13;5.97;;;;;;;15.87;72.55;102074.34;7395305;19;20022;-64
2023/09/27 00:12:38;;;;;;;11.80;5.80;;;;;;;15.92;72.27;102076.72;7394091;19;20028;-64
2023/09/27 00:15:08;;;;;;;11.20;5.75;;;;;;;15.90;72.35;102073.28;7394790;19;20030;-65
2023/09/27 00:17:35;;;;;;;13.25;6.35;;;;;;;15.81;72.31;102074.84;7392930;19;20018;-65
2023/09/27 00:20:11;;;;;;;10.73;6.35;;;;;;;15.53;73.36;102087.53;7394126;19;20082;-65
2023/09/27 00:22:39;;;;;;;11.38;6.40;;;;;;;15.60;73.27;102087.91;7392668;19;20037;-65
2023/09/27 00:25:09;;;;;;;11.68;5.32;;;;;;;15.71;72.85;102073.81;7394623;19;20023;-63
2023/09/27 00:27:37;;;;;;;9.07;5.40;;;;;;;15.75;72.34;102069.94;7394035;19;20033;-63
2023/09/27 00:30:08;;;;;;;9.30;5.95;;;;;;;15.80;72.26;102075.81;7392201;19;20022;-63
2023/09/27 00:32:36;;;;;;;11.43;6.00;;;;;;;15.81;72.31;102074.84;7394151;19;20716;-64
2023/09/27 00:35:04;;;;;;;9.75;5.82;;;;;;;15.79;72.37;102066.91;7393953;19;20014;-65
2023/09/27 00:37:34;;;;;;;11.85;6.10;;;;;;;15.60;72.66;102072.75;7393289;19;20026;-64
2023/09/27 00:40:01;;;;;;;12.05;5.75;;;;;;;15.33;73.71;102074.75;7393245;19;20094;-64
2023/09/27 00:42:29;;;;;;;9.70;5.85;;;;;;;15.36;74.08;102063.88;7392592;19;20034;-66
2023/09/27 00:44:56;;;;;;;10.05;5.78;;;;;;;15.51;73.27;102064.56;7393416;19;20119;-63
2023/09/27 00:47:24;;;;;;;9.38;5.43;;;;;;;15.44;73.87;102061.50;7393588;19;20021;-64
2023/09/27 00:49:53;;;;;;;8.77;5.57;;;;;;;15.56;73.02;102063.25;7389845;19;20014;-65
2023/09/27 00:52:21;;;;;;;11.02;6.03;;;;;;;15.39;73.87;102060.97;7391169;19;20356;-65
2023/09/27 00:54:50;;;;;;;9.07;5.60;;;;;;;15.50;73.34;102065.53;7393590;19;20026;-64
2023/09/27 00:57:18;;;;;;;10.38;5.60;;;;;;;15.53;72.94;102067.97;7393474;19;20041;-64
2023/09/27 00:59:46;;;;;;;9.27;5.50;;;;;;;15.57;72.72;102066.78;7391275;19;20014;-64
2023/09/27 01:02:14;;;;;;;8.40;5.22;;;;;;;15.61;72.01;102057.59;7392517;19;20022;-65
2023/09/27 01:04:43;;;;;;;8.38;5.00;;;;;;;15.55;72.16;102063.38;7392474;19;20018;-65
2023/09/27 01:07:11;;;;;;;9.63;5.30;;;;;;;15.48;71.95;102068.31;7391299;19;20026;-65
2023/09/27 01:09:38;;;;;;;9.27;5.05;;;;;;;15.50;72.08;102074.41;7389100;19;20050;-65
2023/09/27 01:12:07;;;;;;;9.10;5.20;;;;;;;15.40;72.56;102069.84;7392579;19;20011;-66
2023/09/27 01:14:35;;;;;;;7.45;4.85;;;;;;;15.25;72.90;102074.47;7392960;19;20030;-65
2023/09/27 01:17:10;;;;;;;10.57;5.38;;;;;;;15.15;73.48;102068.97;7391083;19;20026;-64
2023/09/27 01:19:38;;;;;;;9.93;5.78;;;;;;;15.18;73.62;102066.03;7387477;19;20014;-64
2023/09/27 01:22:06;;;;;;;6.82;4.72;;;;;;;15.16;73.50;102062.66;7390910;19;20018;-65
2023/09/27 01:24:37;;;;;;;8.73;5.65;;;;;;;14.99;74.08;102066.50;7390496;19;20025;-64
2023/09/27 01:27:08;;;;;;;8.95;5.88;;;;;;;14.84;74.94;102071.16;7392285;19;20014;-64
2023/09/27 01:29:36;;;;;;;9.10;5.72;;;;;;;14.94;74.70;102073.16;7388368;19;20367;-64
2023/09/27 01:32:03;;;;;;;8.40;4.97;;;;;;;15.04;74.13;102076.88;7393222;19;20026;-65
2023/09/27 01:34:31;;;;;;;11.25;6.18;;;;;;;15.02;74.08;102074.31;7392097;19;20082;-64
2023/09/27 01:36:58;;;;;;;10.40;5.63;;;;;;;14.82;75.14;102070.38;7392495;19;20027;-64
2023/09/27 01:39:26;;;;;;;10.30;5.80;;;;;;;15.00;74.00;102073.56;7389625;19;20014;-64
2023/09/27 01:41:54;;;;;;;9.20;5.43;;;;;;;15.05;73.58;102073.25;7391531;19;20526;-65
2023/09/27 01:44:22;;;;;;;9.38;5.75;;;;;;;14.95;73.93;102074.84;7391788;19;20039;-66
2023/09/27 01:46:49;;;;;;;8.95;5.53;;;;;;;14.73;74.88;102078.16;7390483;19;20022;-64
2023/09/27 01:49:17;;;;;;;10.88;5.93;;;;;;;14.73;74.95;102080.84;7389781;19;20031;-65
2023/09/27 01:51:45;;;;;;;9.63;5.95;;;;;;;14.65;75.33;102084.03;7390370;19;20015;-65
2023/09/27 01:54:12;;;;;;;10.35;5.97;;;;;;;14.59;75.55;102089.81;7391899;19;20401;-65
2023/09/27 01:56:40;;;;;;;10.25;6.00;;;;;;;14.59;75.44;102092.47;7389717;19;20018;-63
2023/09/27 01:59:07;;;;;;;8.50;5.53;;;;;;;14.50;75.74;102103.75;7389207;19;20019;-64
2023/09/27 02:01:35;;;;;;;11.57;6.20;;;;;;;14.45;75.86;102103.19;7391924;19;20014;-63
2023/09/27 02:04:04;;;;;;;8.73;5.07;;;;;;;14.71;75.34;102090.78;7398923;19;20014;-63
2023/09/27 02:06:31;;;;;;;7.85;4.95;;;;;;;14.91;73.94;102089.38;7398948;19;20022;-63
2023/09/27 02:08:59;;;;;;;8.25;5.13;;;;;;;14.93;73.20;102104.31;7395844;19;20372;-63
2023/09/27 02:11:26;;;;;;;9.10;5.07;;;;;;;14.93;72.97;102101.66;7398575;19;20056;-63
2023/09/27 02:13:54;;;;;;;9.60;5.80;;;;;;;14.76;73.26;102107.28;7398807;19;20015;-63
2023/09/27 02:16:22;;;;;;;8.55;5.43;;;;;;;14.60;73.87;102107.50;7398381;19;20023;-63
2023/09/27 02:18:49;;;;;;;10.20;5.38;;;;;;;14.56;73.84;102103.34;7396487;19;20025;-63
2023/09/27 02:21:17;;;;;;;8.82;5.93;;;;;;;14.67;73.42;102108.78;7399710;19;20035;-64
2023/09/27 02:23:45;;;;;;;11.93;5.70;;;;;;;14.39;74.24;102097.34;7398924;19;20018;-65
2023/09/27 02:26:13;;;;;;;10.07;5.53;;;;;;;14.29;74.55;102096.25;7399260;19;20022;-65
2023/09/27 02:28:40;;;;;;;10.05;5.85;;;;;;;14.31;74.36;102093.50;7397065;19;20479;-65
2023/09/27 02:31:10;;;;;;;7.57;5.22;;;;;;;14.45;73.83;102089.88;7399832;19;20037;-65
2023/09/27 02:33:40;;;;;;;10.95;6.32;;;;;;;14.71;72.53;102090.78;7399682;19;20022;-65
2023/09/27 02:36:08;;;;;;;10.43;7.03;;;;;;;14.71;72.60;102104.94;7398901;19;20078;-65
2023/09/27 02:38:36;;;;;;;10.93;6.95;;;;;;;14.52;73.35;102109.84;7397197;19;20074;-65
2023/09/27 02:41:04;;;;;;;10.85;6.97;;;;;;;14.40;74.02;102119.50;7398062;19;20025;-65
2023/09/27 02:43:32;;;;;;;9.77;6.90;;;;;;;14.29;74.49;102120.22;7396524;19;20027;-65
2023/09/27 02:45:59;;;;;;;9.20;6.35;;;;;;;14.38;74.42;102118.75;7398532;19;20018;-65
2023/09/27 02:48:29;;;;;;;10.55;6.95;;;;;;;14.36;74.46;102110.88;7399271;19;20019;-65
2023/09/27 02:50:56;;;;;;;10.07;6.38;;;;;;;14.35;74.75;102106.50;7400552;19;20022;-65
2023/09/27 02:53:24;;;;;;;10.73;6.93;;;;;;;14.31;74.63;102106.81;7401498;19;20019;-65
2023/09/27 02:55:51;;;;;;;9.40;6.63;;;;;;;14.52;73.71;102099.19;7400261;19;20014;-64
2023/09/27 02:58:21;;;;;;;10.77;7.40;;;;;;;14.55;72.95;102115.81;7400441;19;20022;-64
2023/09/27 03:00:48;;;;;;;10.25;7.35;;;;;;;14.25;73.89;102101.91;7403226;19;20050;-66
2023/09/27 03:03:19;;;;;;;10.15;6.78;;;;;;;14.48;73.29;102103.00;7395461;19;20023;-65
2023/09/27 03:05:47;;;;;;;10.32;7.13;;;;;;;14.45;73.08;102097.88;7398696;19;20074;-65
2023/09/27 03:08:14;;;;;;;9.95;7.15;;;;;;;14.37;72.68;102099.25;7396901;19;20022;-64
2023/09/27 03:10:42;;;;;;;10.23;7.35;;;;;;;14.36;72.81;102096.69;7397468;19;20018;-64
2023/09/27 03:13:11;;;;;;;11.55;7.95;;;;;;;14.24;73.38;102100.19;7396120;19;20497;-65
2023/09/27 03:15:40;;;;;;;10.43;7.93;;;;;;;14.29;73.51;102101.56;7397559;19;20042;-65
2023/09/27 03:18:08;;;;;;;11.25;7.72;;;;;;;14.20;74.07;102110.22;7396169;19;20051;-65
2023/09/27 03:20:36;;;;;;;10.43;7.95;;;;;;;14.11;74.71;102102.81;7397564;19;20015;-65
2023/09/27 03:23:03;;;;;;;11.18;7.63;;;;;;;14.10;75.15;102106.44;7396169;19;20019;-65
2023/09/27 03:25:32;;;;;;;10.57;7.90;;;;;;;14.32;74.10;102100.53;7395788;19;20018;-61
2023/09/27 03:28:00;;;;;;;10.65;7.97;;;;;;;14.46;73.05;102094.22;7394140;19;20034;-60
2023/09/27 03:30:27;;;;;;;11.35;7.68;;;;;;;14.60;72.30;102095.03;7395385;19;20007;-58
2023/09/27 03:32:55;;;;;;;11.48;8.07;;;;;;;14.66;71.76;102099.09;7396082;19;20047;-57
2023/09/27 03:35:23;;;;;;;12.95;8.93;;;;;;;14.62;71.69;102092.28;7396263;19;20023;-57
2023/09/27 03:37:51;;;;;;;13.57;9.07;;;;;;;14.28;73.11;102101.69;7394899;19;20037;-58
2023/09/27 03:40:18;;;;;;;12.23;9.05;;;;;;;14.22;73.52;102102.09;7396319;19;20014;-61
2023/09/27 03:42:46;;;;;;;13.48;9.70;;;;;;;14.29;73.81;102098.06;7394673;19;20011;-59
2023/09/27 03:45:15;;;;;;;13.23;9.70;;;;;;;14.29;74.35;102095.41;7395973;19;20018;-60
2023/09/27 03:47:44;;;;;;;12.55;9.25;;;;;;;14.48;74.01;102101.19;7395007;19;20043;-58
2023/09/27 03:50:13;;;;;;;12.00;9.73;;;;;;;14.42;74.12;102106.91;7395265;19;20031;-59
2023/09/27 03:52:41;;;;;;;13.13;9.43;;;;;;;14.19;75.10;102107.63;7393914;19;20018;-61
2023/09/27 03:55:10;;;;;;;14.15;10.45;;;;;;;14.07;75.71;102107.50;7396119;19;20023;-61
2023/09/27 03:57:41;;;;;;;11.63;8.80;;;;;;;13.96;76.12;102106.50;7393852;19;20022;-61
2023/09/27 04:00:18;;;;;;;12.88;9.07;;;;;;;14.19;75.29;102096.97;7394837;19;20010;-61
2023/09/27 04:02:48;;;;;;;12.23;8.40;;;;;;;14.40;74.34;102098.19;7393986;19;20022;-61
2023/09/27 04:05:18;;;;;;;12.45;8.60;;;;;;;14.51;73.58;102098.34;7394656;19;20025;-61
2023/09/27 04:07:46;;;;;;;12.73;9.95;;;;;;;14.41;73.15;102094.56;7394112;19;20018;-61
2023/09/27 04:10:17;;;;;;;13.68;9.85;;;;;;;14.19;74.15;102092.50;7394118;19;20019;-61
2023/09/27 04:12:45;;;;;;;12.30;8.93;;;;;;;14.09;74.78;102094.09;7394725;19;20015;-59
2023/09/27 04:15:13;;;;;;;14.15;9.68;;;;;;;14.02;75.47;102098.97;7394666;19;20029;-59
2023/09/27 04:17:40;;;;;;;11.88;8.77;;;;;;;13.97;75.86;102098.41;7394199;19;20090;-60
2023/09/27 04:20:15;;;;;;;12.35;9.45;;;;;;;14.02;75.54;102101.63;7393726;19;20086;-60
2023/09/27 04:22:47;;;;;;;12.38;9.25;;;;;;;14.06;75.41;102103.13;7393666;19;20414;-60
2023/09/27 04:25:15;;;;;;;12.75;8.70;;;;;;;14.07;75.55;102101.31;7394364;19;20022;-61
2023/09/27 04:27:46;;;;;;;13.18;8.65;;;;;;;14.07;75.73;102107.50;7393480;19;20360;-61
2023/09/27 04:30:14;;;;;;;11.52;9.10;;;;;;;14.00;76.13;102105.34;7394074;19;20022;-61
2023/09/27 04:32:43;;;;;;;12.50;9.07;;;;;;;13.97;76.37;102114.41;7394389;19;20022;-61
2023/09/27 04:35:12;;;;;;;11.68;8.65;;;;;;;14.05;76.05;102113.91;7393495;19;20022;-61
2023/09/27 04:37:40;;;;;;;11.85;9.13;;;;;;;14.21;74.90;102105.72;7393612;19;20110;-61
2023/09/27 04:40:11;;;;;;;12.75;8.80;;;;;;;14.29;73.95;102111.38;7393478;19;20086;-58
2023/09/27 04:42:43;;;;;;;11.52;9.40;;;;;;;14.41;73.17;102115.03;7391425;19;20022;-59
2023/09/27 04:45:12;;;;;;;13.45;9.35;;;;;;;14.42;72.85;102108.72;7393146;19;20054;-59
2023/09/27 04:47:40;;;;;;;12.10;9.02;;;;;;;14.47;72.73;102101.28;7392936;19;20021;-57
2023/09/27 04:50:10;;;;;;;15.90;9.50;;;;;;;14.46;72.86;102105.78;7393286;19;20035;-60
2023/09/27 04:52:39;;;;;;;14.05;8.77;;;;;;;14.49;73.11;102108.25;7393861;19;20031;-59
2023/09/27 04:55:08;;;;;;;12.10;8.65;;;;;;;14.51;73.21;102106.34;7392005;19;20023;-60
2023/09/27 04:57:37;;;;;;;12.32;8.85;;;;;;;14.24;74.36;102105.53;7392902;19;20015;-63
2023/09/27 05:00:09;;;;;;;11.13;9.07;;;;;;;14.12;74.86;102108.06;7392873;19;20022;-64
2023/09/27 05:02:37;;;;;;;13.10;8.93;;;;;;;14.32;73.98;102104.03;7393187;19;20014;-64
2023/09/27 05:05:05;;;;;;;11.25;8.38;;;;;;;14.46;73.45;102116.44;7393446;19;20025;-64
2023/09/27 05:07:33;;;;;;;13.77;9.20;;;;;;;14.42;73.28;102108.72;7393101;19;20094;-64
2023/09/27 05:10:01;;;;;;;12.80;9.35;;;;;;;14.02;75.04;102103.44;7391912;19;20022;-64
2023/09/27 05:12:28;;;;;;;13.00;8.30;;;;;;;14.13;75.17;102101.75;7390778;19;20014;-64
2023/09/27 05:14:58;;;;;;;11.85;7.60;;;;;;;14.35;74.29;102095.84;7392372;19;20571;-64
2023/09/27 05:17:25;;;;;;;13.13;7.57;;;;;;;14.39;74.00;102096.50;7393323;19;20019;-64
2023/09/27 05:19:53;;;;;;;11.13;6.88;;;;;;;14.44;74.00;102101.50;7390137;19;20052;-64
2023/09/27 05:22:21;;;;;;;11.25;7.82;;;;;;;14.24;75.07;102100.19;7392074;19;20055;-64
2023/09/27 05:24:48;;;;;;;10.75;7.88;;;;;;;14.07;76.06;102101.31;7392531;19;20026;-63
2023/09/27 05:27:16;;;;;;;10.25;7.05;;;;;;;14.05;76.55;102087.25;7392137;19;20018;-64
2023/09/27 05:29:45;;;;;;;9.73;7.13;;;;;;;14.30;75.38;102094.44;7390102;19;20487;-64
2023/09/27 05:32:12;;;;;;;10.52;7.47;;;;;;;14.45;74.77;102089.88;7390730;19;20020;-64
2023/09/27 05:34:40;;;;;;;11.02;7.95;;;;;;;14.18;75.47;102093.44;7392080;19;20376;-63
2023/09/27 05:37:07;;;;;;;11.27;8.20;;;;;;;13.98;76.07;102100.13;7390505;19;20371;-63
2023/09/27 05:39:35;;;;;;;11.07;7.93;;;;;;;13.97;76.24;102100.22;7389803;19;20037;-63
2023/09/27 05:42:02;;;;;;;10.25;7.25;;;;;;;13.99;76.13;102099.16;7392320;19;20010;-63
2023/09/27 05:44:30;;;;;;;12.27;7.57;;;;;;;14.02;75.99;102106.09;7388542;19;20029;-57
2023/09/27 05:46:57;;;;;;;12.18;7.95;;;;;;;14.00;76.56;102102.66;7392293;19;20015;-57
2023/09/27 05:49:25;;;;;;;12.80;7.88;;;;;;;14.10;76.96;102101.97;7390355;19;20018;-58
2023/09/27 05:51:53;;;;;;;11.48;7.90;;;;;;;14.16;76.86;102103.38;7391788;19;20086;-55
2023/09/27 05:54:20;;;;;;;13.40;8.00;;;;;;;14.16;77.07;102103.38;7392133;19;20033;-58
2023/09/27 05:56:51;;;;;;;13.38;8.30;;;;;;;14.15;77.32;102110.50;7390677;19;20026;-58
2023/09/27 05:59:19;;;;;;;10.50;7.32;;;;;;;14.15;77.37;102115.81;7390335;19;20345;-58
2023/09/27 06:01:47;;;;;;;16.95;8.50;;;;;;;14.31;77.21;102128.13;7391691;19;20023;-57
2023/09/27 06:04:14;;;;;;;14.20;8.82;;;;;;;14.49;77.00;102136.69;7390717;19;20495;-60
2023/09/27 06:06:42;;;;;;;12.07;8.65;;;;;;;14.44;76.99;102142.31;7391116;19;20021;-61
2023/09/27 06:09:10;;;;;;;14.48;8.23;;;;;;;14.53;77.05;102140.88;7389920;19;20024;-61
2023/09/27 06:11:37;;;;;;;12.73;9.25;;;;;;;14.62;76.61;102140.25;7391823;19;20023;-62
2023/09/27 06:14:10;;;;;;;13.77;8.25;;;;;;;14.54;77.28;102139.94;7391486;19;20022;-63
2023/09/27 06:16:39;;;;;;;12.13;8.05;;;;;;;14.60;77.35;102137.69;7391234;19;20074;-60
2023/09/27 06:19:09;;;;;;;10.93;7.90;;;;;;;14.58;77.40;102147.63;7390427;19;20357;-59
2023/09/27 06:21:37;;;;;;;13.05;8.80;;;;;;;14.64;77.32;102151.66;7392614;19;20357;-60
2023/09/27 06:24:05;;;;;;;12.55;8.23;;;;;;;14.76;76.80;102148.16;7390403;19;20369;-60
2023/09/27 06:26:33;;;;;;;12.80;7.93;;;;;;;14.82;77.19;102144.22;7391605;19;20828;-60
2023/09/27 06:29:00;;;;;;;12.00;8.20;;;;;;;14.81;77.11;102154.03;7389170;19;20017;-59
2023/09/27 06:31:29;;;;;;;14.05;8.70;;;;;;;14.96;76.65;102154.78;7389636;19;20025;-60
2023/09/27 06:33:56;;;;;;;12.77;8.00;;;;;;;15.04;76.60;102167.59;7390676;19;20086;-60
2023/09/27 06:36:27;;;;;;;13.57;8.70;;;;;;;15.11;76.40;102160.88;7389160;19;20014;-63
2023/09/27 06:38:55;;;;;;;14.98;9.07;;;;;;;15.19;76.36;102153.16;7388906;19;20042;-63
2023/09/27 06:41:22;;;;;;;14.02;10.07;;;;;;;15.29;76.21;102148.00;7390420;19;20015;-62
2023/09/27 06:43:50;;;;;;;15.80;11.68;;;;;;;15.43;76.45;102149.72;7387685;19;20400;-61
2023/09/27 06:46:19;;;;;;;15.45;11.32;;;;;;;15.48;76.55;102158.22;7388174;19;20509;-61
2023/09/27 06:48:46;;;;;;;13.93;10.65;;;;;;;15.62;76.31;102166.09;7389814;19;20018;-61
2023/09/27 06:51:14;;;;;;;16.35;11.75;;;;;;;15.63;76.87;102166.97;7397244;19;20043;-61
2023/09/27 06:53:42;;;;;;;15.13;12.13;;;;;;;15.75;76.59;102177.63;7397327;19;20007;-62
2023/09/27 06:56:10;;;;;;;17.50;12.73;;;;;;;15.89;76.08;102187.31;7395755;19;20425;-61
2023/09/27 06:58:37;;;;;;;18.83;12.63;;;;;;;15.92;76.47;102187.09;7395468;19;20061;-61
2023/09/27 07:01:05;;;;;;;18.20;13.70;;;;;;;15.97;76.65;102184.06;7397286;19;20022;-61
2023/09/27 07:03:35;;;;;;;19.65;13.98;;;;;;;16.06;76.53;102192.28;7396067;19;20021;-62
2023/09/27 07:06:03;;;;;;;17.75;14.38;;;;;;;16.19;75.96;102200.25;7397324;19;20018;-62
2023/09/27 07:08:31;;;;;;;16.92;13.65;;;;;;;16.27;75.97;102216.56;7395535;19;20425;-62
2023/09/27 07:11:05;;;;;;;17.33;14.20;;;;;;;16.41;75.25;102222.69;7395633;19;20021;-62
2023/09/27 07:13:33;;;;;;;17.50;14.70;;;;;;;16.42;75.55;102224.41;7396389;19;20014;-62
2023/09/27 07:16:21;;;;;;;17.73;14.27;;;;;;;16.58;74.85;102230.31;7395714;19;20015;-62
2023/09/27 07:18:49;;;;;;;16.02;13.30;;;;;;;16.54;75.24;102234.19;7394499;19;20501;-62
2023/09/27 07:21:19;;;;;;;19.48;15.35;;;;;;;16.62;74.86;102230.94;7396321;19;20025;-60
2023/09/27 07:23:49;;;;;;;21.75;15.68;;;;;;;16.63;74.64;102222.78;7395504;19;20019;-63
2023/09/27 07:26:16;;;;;;;18.67;14.23;;;;;;;16.69;74.61;102216.13;7396420;19;20095;-59
2023/09/27 07:28:45;;;;;;;17.52;14.27;;;;;;;16.75;74.37;102227.25;7394045;19;20018;-59
2023/09/27 07:31:14;;;;;;;16.73;14.27;;;;;;;16.79;74.21;102226.03;7395604;19;20015;-59
2023/09/27 07:33:49;;;;;;;17.83;14.60;;;;;;;16.78;74.05;102226.97;7396450;19;20029;-58
2023/09/27 07:36:20;;;;;;;20.55;16.10;;;;;;;16.70;74.42;102223.16;7395369;19;20025;-58
2023/09/27 07:38:47;;;;;;;19.90;15.45;;;;;;;16.73;74.23;102220.25;7394603;19;20038;-58
2023/09/27 07:41:15;;;;;;;20.08;15.38;;;;;;;16.77;74.19;102217.25;7395120;19;20018;-56
2023/09/27 07:43:43;;;;;;;20.10;15.70;;;;;;;16.81;74.35;102200.00;7396025;19;20028;-55
2023/09/27 07:46:12;;;;;;;18.10;14.70;;;;;;;16.86;74.16;102191.59;7395874;19;20362;-58
2023/09/27 07:48:42;;;;;;;17.65;14.57;;;;;;;16.88;74.34;102187.00;7394169;19;20488;-59
2023/09/27 07:51:14;;;;;;;18.75;14.73;;;;;;;16.95;74.17;102182.03;7394716;19;20031;-59
2023/09/27 07:53:42;;;;;;;17.67;15.00;;;;;;;16.98;73.68;102187.13;7395372;19;20029;-59
2023/09/27 07:56:19;;;;;;;18.17;15.57;;;;;;;17.09;73.69;102178.25;7395471;19;20645;-60
2023/09/27 07:58:54;;;;;;;18.55;14.90;;;;;;;17.07;73.69;102178.41;7393761;19;20018;-60
2023/09/27 08:01:23;;;;;;;17.92;15.50;;;;;;;17.14;74.03;102176.09;7392613;19;20072;-59
2023/09/27 08:03:52;;;;;;;17.90;14.27;;;;;;;17.23;73.67;102173.53;7394604;19;20023;-62
2023/09/27 08:06:20;;;;;;;19.15;15.35;;;;;;;17.30;73.37;102164.03;7394649;19;20574;-62
2023/09/27 08:08:51;;;;;;;17.83;14.40;;;;;;;17.37;73.45;102153.69;7393055;19;20357;-61
2023/09/27 08:11:19;;;;;;;20.55;15.27;;;;;;;17.45;73.51;102148.56;7395068;19;20428;-61
2023/09/27 08:13:47;;;;;;;18.85;13.43;;;;;;;17.54;73.33;102155.00;7392788;19;20029;-62
2023/09/27 08:16:14;;;;;;;19.20;13.80;;;;;;;17.63;73.23;102154.28;7392639;19;20022;-62
2023/09/27 08:18:42;;;;;;;22.67;15.55;;;;;;;17.72;72.78;102140.13;7393232;19;20372;-62
2023/09/27 08:21:10;;;;;;;21.60;14.85;;;;;;;17.81;72.59;102135.84;7394496;19;20071;-63
2023/09/27 08:23:39;;;;;;;20.60;14.68;;;;;;;17.90;72.58;102136.94;7392647;19;20007;-63
2023/09/27 08:26:12;;;;;;;19.13;14.82;;;;;;;18.06;72.17;102148.09;7394566;19;20014;-62
2023/09/27 08:28:40;;;;;;;18.60;15.32;;;;;;;18.09;71.58;102153.22;7390938;19;20029;-60
2023/09/27 08:31:09;;;;;;;17.65;14.77;;;;;;;18.18;71.43;102141.69;7393984;19;20018;-60
2023/09/27 08:33:37;;;;;;;18.40;14.52;;;;;;;18.31;70.95;102141.50;7393722;19;20010;-58
2023/09/27 08:36:05;;;;;;;19.45;14.93;;;;;;;18.37;70.30;102132.13;7394122;19;20010;-61
2023/09/27 08:38:33;;;;;;;18.70;14.38;;;;;;;18.46;70.10;102136.69;7392352;19;20023;-60
2023/09/27 08:41:03;;;;;;;16.25;13.50;;;;;;;18.51;70.39;102145.22;7394094;19;20414;-60
2023/09/27 08:43:34;;;;;;;21.02;15.05;;;;;;;18.65;70.22;102150.22;7391800;19;20031;-60
2023/09/27 08:46:04;;;;;;;17.58;14.05;;;;;;;18.79;69.58;102145.56;7393727;19;20029;-62
2023/09/27 08:48:33;;;;;;;19.20;13.77;;;;;;;18.86;69.21;102157.47;7391846;19;20042;-60
2023/09/27 08:51:04;;;;;;;17.88;13.77;;;;;;;18.94;69.41;102168.38;7393004;19;20381;-62
2023/09/27 08:53:34;;;;;;;20.60;13.55;;;;;;;19.04;68.56;102169.31;7391908;19;20025;-60
2023/09/27 08:56:04;;;;;;;15.73;12.60;;;;;;;19.08;68.66;102169.84;7391852;19;20011;-62
2023/09/27 08:58:34;;;;;;;18.45;12.93;;;;;;;19.16;67.90;102170.91;7391336;19;20014;-62
2023/09/27 09:01:03;;;;;;;18.98;13.15;;;;;;;19.18;67.63;102160.84;7392948;19;20015;-62
2023/09/27 09:03:31;;;;;;;20.63;13.30;;;;;;;19.22;68.09;102158.75;7390922;19;20511;-63
2023/09/27 09:06:01;;;;;;;16.90;12.85;;;;;;;19.29;67.71;102170.66;7390956;19;20018;-62
2023/09/27 09:08:28;;;;;;;17.52;13.45;;;;;;;19.33;67.28;102176.63;7391885;19;20086;-62
2023/09/27 09:11:11;;;;;;;17.75;12.55;;;;;;;19.42;67.01;102173.09;7391648;19;20089;-62
2023/09/27 09:14:05;;;;;;;16.60;12.18;;;;;;;19.58;66.70;102168.09;7391960;19;20033;-63
2023/09/27 09:16:47;;;;;;;16.38;11.85;;;;;;;19.61;66.84;102164.25;7392827;19;20043;-62
2023/09/27 09:19:23;;;;;;;18.65;12.18;;;;;;;19.74;66.47;102164.91;7391112;19;20378;-63
2023/09/27 09:22:03;;;;;;;18.00;11.88;;;;;;;19.79;66.80;102170.72;7392298;19;20363;-62
2023/09/27 09:24:35;;;;;;;15.88;11.10;;;;;;;19.76;66.36;102164.75;7391705;19;20501;-63
2023/09/27 09:27:09;;;;;;;16.67;10.05;;;;;;;19.78;66.44;102165.47;7391021;19;20027;-62
2023/09/27 09:29:46;;;;;;;14.13;10.07;;;;;;;19.75;67.08;102163.91;7390457;19;20013;-62
2023/09/27 09:32:19;;;;;;;15.95;10.93;;;;;;;19.71;66.98;102157.13;7390793;19;20018;-63
2023/09/27 09:34:49;;;;;;;16.15;10.30;;;;;;;19.69;67.10;102167.16;7392115;19;20014;-61
2023/09/27 09:37:30;;;;;;;16.85;10.88;;;;;;;19.80;66.81;102171.56;7391770;19;20833;-62
2023/09/27 09:40:14;;;;;;;15.00;11.02;;;;;;;19.84;66.97;102167.59;7391747;19;20015;-62
2023/09/27 09:42:43;;;;;;;15.55;10.70;;;;;;;19.75;67.35;102165.75;7392467;19;20026;-62
2023/09/27 09:45:12;;;;;;;16.80;10.70;;;;;;;19.76;67.33;102172.81;7391363;19;20043;-61
2023/09/27 09:47:43;;;;;;;16.20;10.63;;;;;;;19.73;67.17;102168.59;7391521;19;20018;-62
2023/09/27 09:50:19;;;;;;;14.80;10.68;;;;;;;19.72;67.67;102183.84;7391387;19;20479;-61
2023/09/27 09:52:50;;;;;;;15.00;10.15;;;;;;;19.66;68.21;102176.34;7392358;19;20014;-62
2023/09/27 09:55:21;;;;;;;19.15;11.50;;;;;;;19.60;68.08;102173.31;7391818;19;20018;-62
2023/09/27 09:58:33;;;;;;;15.80;10.70;;;;;;;19.56;67.96;102163.84;7390494;19;20026;-62
2023/09/27 10:01:02;;;;;;;14.95;11.15;;;;;;;19.52;68.27;102157.88;7392963;19;20499;-59
2023/09/27 10:03:33;;;;;;;13.25;9.13;;;;;;;19.59;68.38;102152.81;7392381;19;20027;-59
2023/09/27 10:06:02;;;;;;;12.15;8.43;;;;;;;19.71;68.04;102138.28;7392060;19;20412;-59
2023/09/27 10:08:38;;;;;;;16.77;9.82;;;;;;;19.79;67.99;102143.81;7392131;19;20025;-61
2023/09/27 10:11:06;;;;;;;14.95;10.18;;;;;;;19.85;67.83;102156.72;7394068;19;20371;-59
2023/09/27 10:13:35;;;;;;;16.85;9.60;;;;;;;19.92;67.70;102157.03;7393726;19;20070;-61
2023/09/27 10:16:04;;;;;;;15.95;10.38;;;;;;;19.92;67.07;102151.66;7393109;19;20017;-59
2023/09/27 10:18:36;;;;;;;14.30;9.43;;;;;;;19.94;67.10;102155.88;7389384;19;20501;-60
2023/09/27 10:21:05;;;;;;;13.88;9.15;;;;;;;19.99;66.82;102162.66;7394345;19;20018;-62
2023/09/27 10:23:53;;;;;;;12.25;8.40;;;;;;;20.12;66.75;102158.72;7398144;19;20029;-63
2023/09/27 10:26:31;;;;;;;14.80;8.85;;;;;;;20.15;66.12;102157.59;7395349;19;20355;-63
2023/09/27 10:29:15;;;;;;;15.10;8.23;;;;;;;20.15;65.46;102145.00;7396285;19;20043;-62
2023/09/27 10:31:58;;;;;;;;;;;;;;;19.96;65.95;102139.63;7399196;19;20022;-62
2023/09/27 10:34:25;;;;;;;11.60;6.95;;;;;;;19.94;66.46;102145.13;7398450;19;19934;-62
2023/09/27 10:36:54;;;;;;;12.35;6.72;;;;;;;20.15;66.19;102142.31;7397706;19;20034;-62
2023/09/27 10:40:18;;;;;;;11.45;6.90;;;;;;;20.30;65.98;102152.63;7392754;19;20014;-63
2023/09/27 10:42:45;;;;;;;11.87;6.43;;;;;;;20.28;66.01;102144.69;7397949;19;20082;-63
2023/09/27 10:45:13;;;;;;;10.82;6.80;;;;;;;20.38;65.42;102152.78;7396376;19;20022;-63
2023/09/27 10:47:41;;;;;;;10.77;6.85;;;;;;;20.49;65.10;102149.97;7397615;19;20037;-63
2023/09/27 10:50:10;;;;;;;12.48;6.95;;;;;;;20.49;64.74;102154.44;7396270;19;20023;-63
2023/09/27 10:52:39;;;;;;;10.40;6.10;;;;;;;20.43;63.96;102145.13;7397168;19;20019;-63
2023/09/27 10:55:11;;;;;;;9.25;5.47;;;;;;;20.55;62.89;102133.22;7397702;19;20053;-63
2023/09/27 10:57:40;;;;;;;12.38;6.20;;;;;;;20.53;64.15;102142.44;7396403;19;20491;-63
2023/09/27 11:00:11;;;;;;;10.43;5.40;;;;;;;20.61;63.34;102129.13;7396581;19;20074;-63
2023/09/27 11:02:41;;;;;;;10.63;6.63;;;;;;;20.73;63.39;102130.66;7396508;19;20374;-63
2023/09/27 11:05:09;;;;;;;9.77;5.45;;;;;;;20.92;62.06;102127.06;7395701;19;20085;-63
2023/09/27 11:07:43;;;;;;;10.98;6.68;;;;;;;;;;7396212;19;20359;-63
2023/09/27 11:10:10;;;;;;;10.38;5.30;;;;;;;21.10;61.47;102122.59;7396104;19;20415;-63
2023/09/27 11:12:41;;;;;;;9.40;4.60;;;;;;;21.20;60.36;102121.69;7396305;19;20014;-63
2023/09/27 11:15:10;;;;;;;7.95;4.55;;;;;;;21.13;59.91;102129.50;7396611;19;20383;-63
2023/09/27 11:17:38;;;;;;;5.95;3.95;;;;;;;21.00;59.69;102121.78;7395990;19;20078;-62
2023/09/27 11:20:13;;;;;;;8.68;4.55;;;;;;;21.04;60.10;102115.09;7395898;19;20019;-62
2023/09/27 11:22:41;;;;;;;9.60;4.57;;;;;;;21.14;60.04;102110.50;7396298;19;20356;-62
2023/09/27 11:25:27;;;;;;;7.35;4.18;;;;;;;21.29;59.30;102110.00;7395144;19;20015;-62
2023/09/27 11:27:55;;;;;;;6.97;4.00;;;;;;;21.17;59.94;102106.66;7395229;19;20090;-62